Time;durP1;ratioP1;P1;durP2;ratioP2;P2;SDS_P1;SDS_P2;PMS_P1;PMS_P2;Temp;Humidity;BMP_temperature;BMP_pressure;BME280_temperature;BME280_humidity;BME280_pressure;Samples;Min_cycle;Max_cycle;Signal;HPM_P1;HPM_P2
2023/10/13 00:02:13;;;;;;;17.55;10.45;;;;;;;;;;5049427;28;20044;-56
2023/10/13 00:04:41;;;;;;;15.52;9.35;;;;;;;;;;5051008;28;20033;-56
2023/10/13 00:07:09;;;;;;;12.55;9.05;;;;;;;;;;5051391;28;20027;-56
2023/10/13 00:09:38;;;;;;;15.43;9.55;;;;;;;;;;5051364;28;20037;-58
2023/10/13 00:12:14;;;;;;;14.55;9.48;;;;;;;;;;5051417;28;20025;-56
2023/10/13 00:14:41;;;;;;;20.40;9.48;;;;;;;;;;5051008;28;20531;-56
2023/10/13 00:17:08;;;;;;;18.55;10.23;;;;;;;;;;5051596;28;20067;-55
2023/10/13 00:19:44;;;;;;;24.67;10.50;;;17.10;99.90;;;;;;5051102;28;20116;-58
2023/10/13 00:22:11;;;;;;;14.25;9.05;;;17.10;99.90;;;;;;5051334;28;20069;-58
2023/10/13 00:24:45;;;;;;;14.90;9.50;;;17.10;99.90;;;;;;5050742;28;20067;-56
2023/10/13 00:27:30;;;;;;;15.25;9.07;;;17.20;99.90;;;;;;5051512;28;20066;-57
2023/10/13 00:32:50;;;;;;;17.38;9.38;;;;;;;;;;5052524;28;20086;-59
2023/10/13 00:35:24;;;;;;;17.35;9.85;;;17.00;99.90;;;;;;5054497;28;20059;-57
2023/10/13 00:37:54;;;;;;;13.95;9.05;;;17.20;99.90;;;;;;5020016;28;20037;-59
2023/10/13 00:45:55;;;;;;;19.05;9.50;;;17.30;99.90;;;;;;5054259;28;20439;-56
2023/10/13 00:48:34;;;;;;;13.43;9.82;;;17.20;99.90;;;;;;5054602;28;20052;-59
2023/10/13 00:51:07;;;;;;;14.80;8.88;;;17.10;99.90;;;;;;5054666;28;20112;-57
2023/10/13 00:53:40;;;;;;;15.15;9.48;;;17.10;99.90;;;;;;5054404;28;20469;-58
2023/10/13 00:56:18;;;;;;;17.45;9.63;;;17.20;99.90;;;;;;5054303;28;20464;-59
2023/10/13 00:58:46;;;;;;;15.32;10.25;;;17.20;99.90;;;;;;5054518;28;20033;-59
2023/10/13 01:01:18;;;;;;;13.35;9.65;;;17.10;99.90;;;;;;5054412;28;20086;-59
2023/10/13 01:03:55;;;;;;;18.85;9.55;;;17.10;99.90;;;;;;5054198;28;20029;-56
2023/10/13 01:06:25;;;;;;;13.98;9.63;;;16.90;99.90;;;;;;5054457;28;20431;-57
2023/10/13 01:09:12;;;;;;;14.73;10.02;;;16.60;99.90;;;;;;5053842;28;20427;-59
2023/10/13 01:11:44;;;;;;;16.70;10.65;;;16.60;99.90;;;;;;5054143;28;20625;-56
2023/10/13 01:14:17;;;;;;;16.73;10.20;;;16.70;99.90;;;;;;5054398;28;20025;-59
2023/10/13 01:16:44;;;;;;;19.98;9.85;;;16.80;99.90;;;;;;5053964;28;20040;-57
2023/10/13 01:19:17;;;;;;;21.85;11.00;;;16.80;99.90;;;;;;5053690;28;20075;-57
2023/10/13 01:21:44;;;;;;;16.10;10.43;;;16.80;99.90;;;;;;5053960;28;20553;-56
2023/10/13 01:24:11;;;;;;;16.27;9.40;;;16.90;99.90;;;;;;5053814;28;20037;-57
2023/10/13 01:26:41;;;;;;;12.25;9.90;;;17.00;99.90;;;;;;5053679;28;20442;-59
2023/10/13 01:29:14;;;;;;;13.38;9.20;;;17.00;99.90;;;;;;5053383;28;20063;-56
2023/10/13 01:31:46;;;;;;;15.43;9.00;;;17.00;99.90;;;;;;5054104;28;20463;-59
2023/10/13 01:34:21;;;;;;;11.90;9.80;;;17.00;99.90;;;;;;5053641;28;20056;-57
2023/10/13 01:36:55;;;;;;;19.77;10.35;;;17.00;99.90;;;;;;5053942;28;20051;-60
2023/10/13 01:39:28;;;;;;;17.33;9.02;;;17.00;99.90;;;;;;5053026;28;20465;-56
2023/10/13 01:41:57;;;;;;;18.15;9.40;;;17.00;99.90;;;;;;5053467;28;20025;-57
2023/10/13 01:44:26;;;;;;;16.45;9.38;;;17.00;99.90;;;;;;5068201;28;20036;-56
2023/10/13 01:46:52;;;;;;;16.08;10.40;;;16.80;99.90;;;;;;5053375;28;20033;-58
2023/10/13 01:49:18;;;;;;;17.35;11.30;;;16.50;99.90;;;;;;5053354;28;20029;-60
2023/10/13 01:51:47;;;;;;;15.30;10.07;;;16.40;99.90;;;;;;5053104;28;20029;-59
2023/10/13 01:54:15;;;;;;;17.95;10.07;;;;;;;;;;5053267;28;20040;-58
2023/10/13 01:56:44;;;;;;;15.20;10.00;;;;;;;;;;5053745;28;20028;-60
2023/10/13 01:59:13;;;;;;;17.30;10.70;;;15.80;99.90;;;;;;5053430;28;20036;-57
2023/10/13 02:01:42;;;;;;;11.32;8.98;;;;;;;;;;5052918;28;20424;-59
2023/10/13 02:04:10;;;;;;;14.50;9.60;;;;;;;;;;5053316;28;20040;-57
2023/10/13 02:06:36;;;;;;;15.80;10.02;;;13.90;99.90;;;;;;5052847;28;20090;-56
2023/10/13 02:09:12;;;;;;;11.80;8.82;;;15.10;99.90;;;;;;5052879;28;20029;-59
2023/10/13 02:11:45;;;;;;;15.88;9.57;;;14.80;99.90;;;;;;5052510;28;20108;-57
2023/10/13 02:14:16;;;;;;;15.60;10.65;;;14.50;99.90;;;;;;5052952;28;20029;-59
2023/10/13 02:16:42;;;;;;;21.05;9.55;;;14.40;99.90;;;;;;5052936;28;20104;-56
2023/10/13 02:19:08;;;;;;;13.60;9.30;;;14.30;99.90;;;;;;5052825;28;20432;-55
2023/10/13 02:21:39;;;;;;;14.02;9.65;;;14.20;99.90;;;;;;5052663;28;20368;-55
2023/10/13 02:24:18;;;;;;;18.75;10.25;;;;;;;;;;5052644;28;20075;-59
2023/10/13 02:26:45;;;;;;;16.23;9.73;;;;;;;;;;5052608;28;20037;-56
2023/10/13 02:29:17;;;;;;;14.85;9.65;;;;;;;;;;5052723;28;20415;-57
2023/10/13 02:31:54;;;;;;;14.70;9.32;;;13.90;99.90;;;;;;5052626;28;20028;-56
2023/10/13 02:34:22;;;;;;;14.80;10.00;;;13.90;99.90;;;;;;5052115;28;20119;-59
2023/10/13 02:36:51;;;;;;;14.98;9.95;;;14.20;99.90;;;;;;5052430;28;20415;-57
2023/10/13 02:39:26;;;;;;;13.00;9.88;;;14.40;99.90;;;;;;5052472;28;20029;-59
2023/10/13 02:41:52;;;;;;;16.50;10.15;;;14.60;99.90;;;;;;5052290;28;20032;-55
2023/10/13 02:44:28;;;;;;;14.95;10.70;;;;;;;;;;5052075;28;20037;-58
2023/10/13 02:46:57;;;;;;;16.60;10.57;;;;;;;;;;5052431;28;20447;-58
2023/10/13 02:49:27;;;;;;;15.68;10.85;;;14.60;99.90;;;;;;5052255;28;20017;-58
2023/10/13 02:51:58;;;;;;;16.25;10.77;;;14.70;99.90;;;;;;5052325;28;20052;-56
2023/10/13 02:54:30;;;;;;;14.93;10.40;;;14.80;99.90;;;;;;5051904;28;20029;-56
2023/10/13 02:57:03;;;;;;;15.05;10.93;;;14.90;99.90;;;;;;5051800;28;20036;-59
2023/10/13 02:59:40;;;;;;;21.95;10.80;;;15.20;99.90;;;;;;5051804;28;20033;-56
2023/10/13 03:02:29;;;;;;;20.75;11.93;;;15.40;99.90;;;;;;5052153;28;20028;-58
2023/10/13 03:05:09;;;;;;;18.75;10.40;;;15.70;99.90;;;;;;5051111;28;20070;-56
2023/10/13 03:07:42;;;;;;;26.05;10.27;;;15.90;99.90;;;;;;5051850;28;20066;-58
2023/10/13 03:10:11;;;;;;;23.33;11.90;;;16.00;99.90;;;;;;5049906;28;20443;-57
2023/10/13 03:12:38;;;;;;;17.52;10.55;;;16.10;99.90;;;;;;5049843;28;20055;-56
2023/10/13 03:17:37;;;;;;;16.02;10.15;;;16.30;99.90;;;;;;5055135;28;20040;-56
2023/10/13 03:20:05;;;;;;;17.88;10.07;;;16.20;99.90;;;;;;5059392;28;20021;-58
2023/10/13 03:22:31;;;;;;;18.63;10.35;;;16.30;99.90;;;;;;5060197;28;20526;-58
2023/10/13 03:25:07;;;;;;;16.90;9.88;;;16.20;99.90;;;;;;5053635;28;20477;-56
2023/10/13 03:30:30;;;;;;;22.15;10.32;;;16.00;99.90;;;;;;5029300;28;20046;-59
2023/10/13 03:32:56;;;;;;;21.80;13.82;;;16.20;99.90;;;;;;5029403;28;20092;-59
2023/10/13 03:35:25;;;;;;;14.40;9.50;;;16.20;99.90;;;;;;5029024;28;20128;-58
2023/10/13 03:37:52;;;;;;;16.73;9.18;;;16.30;99.90;;;;;;5029255;28;20038;-58
2023/10/13 03:43:06;;;;;;;16.48;8.98;;;16.40;99.90;;;;;;5028991;28;20044;-58
2023/10/13 03:45:39;;;;;;;16.98;9.50;;;16.40;99.90;;;;;;5029074;28;20528;-58
2023/10/13 03:51:10;;;;;;;18.75;9.75;;;16.40;99.90;;;;;;5029264;28;20080;-57
2023/10/13 03:53:53;;;;;;;17.60;10.43;;;16.50;99.90;;;;;;5029166;28;20049;-59
2023/10/13 03:56:27;;;;;;;16.90;9.20;;;16.30;99.90;;;;;;5029128;28;20080;-57
2023/10/13 03:58:58;;;;;;;19.33;9.68;;;16.20;99.90;;;;;;5015002;28;20038;-58
2023/10/13 04:04:11;;;;;;;20.27;10.43;;;16.40;99.90;;;;;;5029041;28;20108;-55
2023/10/13 04:17:15;;;;;;;12.43;8.48;;;15.60;99.90;;;;;;5050674;28;20047;-56
2023/10/13 04:33:36;;;;;;;15.80;8.20;;;15.30;99.90;;;;;;5008420;28;20049;-58
2023/10/13 04:39:00;;;;;;;11.75;8.05;;;15.30;99.90;;;;;;4968911;28;20069;-58
2023/10/13 04:41:38;;;;;;;12.63;8.07;;;15.20;99.90;;;;;;4943299;29;20591;-57
2023/10/13 04:44:28;;;;;;;13.30;8.40;;;15.10;99.90;;;;;;4934649;29;20127;-57
2023/10/13 04:49:29;;;;;;;13.23;8.27;;;15.10;99.90;;;;;;4940096;29;20428;-58
2023/10/13 04:51:59;;;;;;;16.27;7.85;;;15.20;99.90;;;;;;4946043;29;20509;-57
2023/10/13 04:54:34;;;;;;;14.10;8.13;;;15.20;99.90;;;;;;4943825;28;20106;-57
2023/10/13 06:29:58;;;;;;;15.48;7.10;;;;;;;;;;4990641;28;20449;-58
2023/10/13 06:32:27;;;;;;;12.02;6.90;;;;;;;;;;4991184;28;20130;-58
2023/10/13 06:34:57;;;;;;;9.27;7.25;;;;;;;;;;4994655;28;20118;-61
2023/10/13 06:37:30;;;;;;;10.85;7.22;;;;;;;;;;5050045;28;20388;-59
2023/10/13 06:39:57;;;;;;;15.68;7.35;;;;;;;;;;5052503;28;20029;-58
2023/10/13 06:42:27;;;;;;;15.55;6.95;;;;;;;;;;5052418;28;20029;-59
2023/10/13 10:52:40;;;;;;;20.08;7.57;;;37.20;98.10;;;;;;5026720;28;20557;-60
2023/10/13 10:55:14;;;;;;;13.38;6.75;;;37.50;99.50;;;;;;5046985;28;20045;-60
2023/10/13 10:57:43;;;;;;;15.98;7.20;;;37.00;98.50;;;;;;5032202;28;20087;-60
2023/10/13 11:00:41;;;;;;;17.23;12.52;;;37.10;98.20;;;;;;5032184;28;20057;-60
2023/10/13 11:03:07;;;;;;;13.13;7.68;;;36.60;97.80;;;;;;5036267;28;20033;-62
2023/10/13 11:08:38;;;;;;;14.50;6.90;;;;;;;;;;5032409;28;20539;-60
2023/10/13 11:11:05;;;;;;;13.32;7.60;;;;;;;;;;5032351;28;20029;-60
2023/10/13 11:16:34;;;;;;;12.63;7.25;;;;;;;;;;5031675;28;20036;-60
2023/10/13 11:19:07;;;;;;;16.60;6.10;;;;;;;;;;5030053;28;20037;-60
2023/10/13 11:21:35;;;;;;;10.23;7.07;;;;;;;;;;5029866;28;20069;-60
2023/10/13 11:24:11;;;;;;;13.50;6.50;;;;;;;;;;5032297;28;20033;-60
2023/10/13 11:26:50;;;;;;;13.23;7.15;;;;;;;;;;5031686;28;20053;-60
2023/10/13 11:29:19;;;;;;;16.50;8.75;;;;;;;;;;5031998;28;20064;-60
2023/10/13 11:34:54;;;;;;;15.15;7.78;;;;;;;;;;5031789;28;20091;-60
2023/10/13 11:37:37;;;;;;;13.18;6.97;;;;;;;;;;5013140;28;20053;-61
2023/10/13 11:40:12;;;;;;;13.10;7.00;;;;;;;;;;5031921;28;20112;-60
2023/10/13 11:42:43;;;;;;;11.63;6.93;;;;;;;;;;5031803;28;20037;-60
2023/10/13 11:48:00;;;;;;;13.65;7.60;;;34.60;99.70;;;;;;5031721;28;19920;-60
2023/10/13 11:50:35;;;;;;;11.05;8.02;;;34.70;99.70;;;;;;5031758;28;20392;-61
2023/10/13 11:53:01;;;;;;;21.70;8.90;;;34.90;99.90;;;;;;5031662;28;20045;-60
2023/10/13 11:55:27;;;;;;;18.65;8.57;;;34.90;99.90;;;;;;5031744;28;20033;-60
2023/10/13 11:57:53;;;;;;;18.15;7.95;;;;;;;;;;5032023;28;20041;-60
2023/10/13 12:00:50;;;;;;;14.88;7.47;;;33.40;89.30;;;;;;5031693;28;20026;-60
2023/10/13 12:06:19;;;;;;;20.08;8.65;;;34.00;90.00;;;;;;5031500;28;20103;-60
2023/10/13 12:08:52;;;;;;;21.90;10.57;;;33.10;89.80;;;;;;5031634;28;20033;-60
2023/10/13 12:11:30;;;;;;;18.63;9.63;;;;;;;;;;5031493;28;20029;-60
2023/10/13 12:13:57;;;;;;;20.55;8.63;;;;;;;;;;5031538;28;20037;-60
2023/10/13 12:16:34;;;;;;;24.98;9.98;;;;;;;;;;5031269;28;20025;-60
2023/10/13 12:19:01;;;;;;;18.25;9.43;;;33.00;99.90;;;;;;5031546;28;20047;-60
2023/10/13 12:21:27;;;;;;;13.65;7.93;;;33.00;99.90;;;;;;5035426;28;20017;-60
2023/10/13 12:23:53;;;;;;;19.13;8.50;;;33.30;91.00;;;;;;5037658;28;20025;-59
2023/10/13 12:26:19;;;;;;;17.00;8.13;;;33.10;90.60;;;;;;5039879;28;20116;-54
2023/10/13 12:28:53;;;;;;;15.73;8.65;;;33.00;90.90;;;;;;5039674;28;20116;-57
2023/10/13 12:31:26;;;;;;;15.60;8.60;;;;;;;;;;5042611;28;20476;-59
2023/10/13 12:33:53;;;;;;;13.77;8.98;;;;;;;;;;5042351;28;20025;-56
2023/10/13 12:49:49;;;;;;;16.05;8.93;;;;;;;;;;5034518;28;20125;-60
2023/10/13 12:52:19;;;;;;;17.75;8.23;;;;;;;;;;5034354;28;20068;-56
2023/10/13 12:55:24;;;;;;;19.30;6.97;;;;;;;;;;5034768;28;20470;-57
2023/10/13 12:57:43;;;;;;;11.60;6.20;;;;;;;;;;5034062;28;20056;-59
2023/10/13 13:00:20;;;;;;;15.70;7.03;;;;;;;;;;5049035;28;20382;-60
2023/10/13 13:02:46;;;;;;;13.57;7.38;;;32.70;99.90;;;;;;5032170;28;20053;-57
2023/10/13 13:05:12;;;;;;;14.05;6.53;;;32.70;90.50;;;;;;5034342;28;20555;-57
2023/10/13 13:07:47;;;;;;;15.23;7.15;;;32.60;90.60;;;;;;5034220;28;20037;-59
2023/10/13 13:10:14;;;;;;;13.70;6.15;;;32.00;90.70;;;;;;5034257;28;20570;-58
2023/10/13 13:12:40;;;;;;;11.10;5.97;;;;;;;;;;5048588;28;20060;-58
2023/10/13 13:15:09;;;;;;;12.13;6.05;;;31.50;90.60;;;;;;5034260;28;20041;-57
2023/10/13 13:17:36;;;;;;;11.35;6.05;;;;;;;;;;5031856;28;20436;-57
2023/10/13 13:20:10;;;;;;;10.73;6.95;;;;;;;;;;5034134;28;20069;-56
2023/10/13 13:22:37;;;;;;;12.57;6.50;;;32.00;99.90;;;;;;5034157;28;20112;-57
2023/10/13 13:25:07;;;;;;;14.70;6.32;;;31.90;91.00;;;;;;5033835;28;20036;-56
2023/10/13 13:27:33;;;;;;;12.75;6.43;;;31.80;90.80;;;;;;5031772;28;20499;-59
2023/10/13 13:29:59;;;;;;;18.90;6.25;;;31.90;90.90;;;;;;5034099;28;20057;-58
2023/10/13 13:32:24;;;;;;;13.85;5.38;;;31.60;90.80;;;;;;5034428;28;20479;-57
2023/10/13 13:35:07;;;;;;;12.52;5.75;;;31.40;91.00;;;;;;5033923;28;20037;-58
2023/10/13 13:37:34;;;;;;;11.50;6.07;;;;;;;;;;5033840;28;20041;-57
2023/10/13 13:40:14;;;;;;;10.90;6.68;;;;;;;;;;5033984;28;20071;-59
2023/10/13 13:42:42;;;;;;;15.13;6.00;;;;;;;;;;5033826;28;20033;-58
2023/10/13 13:45:21;;;;;;;11.43;5.57;;;;;;;;;;5033835;28;20076;-57
2023/10/13 13:47:50;;;;;;;12.18;5.35;;;;;;;;;;5033754;28;20393;-58
2023/10/13 13:50:23;;;;;;;11.70;6.13;;;;;;;;;;5033605;28;20091;-58
2023/10/13 13:52:49;;;;;;;10.20;5.38;;;;;;;;;;5033273;28;20405;-58
2023/10/13 13:55:17;;;;;;;10.98;6.03;;;;;;;;;;5033546;28;20033;-56
2023/10/13 13:57:44;;;;;;;13.00;5.68;;;;;;;;;;5033469;28;20120;-56
2023/10/13 14:00:17;;;;;;;13.95;6.57;;;;;;;;;;5033451;28;20029;-57
2023/10/13 14:02:49;;;;;;;16.17;7.72;;;;;;;;;;5033253;28;20362;-58
2023/10/13 14:05:16;;;;;;;13.85;7.70;;;;;;;;;;5032213;28;20037;-57
2023/10/13 14:07:48;;;;;;;10.43;6.20;;;;;;;;;;5040474;28;20473;-59
2023/10/13 14:10:31;;;;;;;13.45;6.68;;;;;;;;;;5042248;28;20104;-57
2023/10/13 14:13:16;;;;;;;14.60;6.75;;;;;;;;;;5042365;28;20033;-57
2023/10/13 14:15:46;;;;;;;12.05;6.75;;;;;;;;;;5042043;28;20052;-58
2023/10/13 14:18:15;;;;;;;12.50;6.85;;;;;;;;;;5041633;28;20056;-57
2023/10/13 14:20:42;;;;;;;15.13;6.90;;;;;;;;;;5041786;28;20036;-58
2023/10/13 14:23:11;;;;;;;14.65;7.10;;;;;;;;;;5043542;28;20179;-57
2023/10/13 14:25:38;;;;;;;12.77;6.38;;;;;;;;;;5041945;28;20477;-56
2023/10/13 14:28:07;;;;;;;12.13;6.57;;;;;;;;;;5041453;28;20033;-57
2023/10/13 14:30:33;;;;;;;16.27;6.88;;;;;;;;;;5035111;28;20108;-57
2023/10/13 14:33:00;;;;;;;13.80;6.80;;;;;;;;;;5031454;28;20037;-58
2023/10/13 14:35:27;;;;;;;21.50;6.80;;;;;;;;;;5032901;28;20040;-58
2023/10/13 14:37:53;;;;;;;13.48;7.22;;;;;;;;;;5032421;28;20029;-57
2023/10/13 14:40:21;;;;;;;14.30;6.80;;;;;;;;;;5032503;28;20436;-56
2023/10/13 14:42:48;;;;;;;16.73;6.63;;;;;;;;;;5032083;28;20037;-57
2023/10/13 14:45:16;;;;;;;12.30;6.70;;;;;;;;;;5032763;28;20473;-58
2023/10/13 14:47:45;;;;;;;16.38;6.80;;;29.80;92.20;;;;;;5032706;28;20048;-57
2023/10/13 14:50:19;;;;;;;10.55;6.65;;;;;;;;;;5047000;28;20041;-58
2023/10/13 14:52:45;;;;;;;12.32;7.30;;;;;;;;;;5031560;28;20102;-56
2023/10/13 14:55:21;;;;;;;13.18;7.22;;;29.30;93.20;;;;;;5046947;28;20564;-58
2023/10/13 14:57:50;;;;;;;20.02;7.47;;;;;;;;;;5032731;28;20104;-59
2023/10/13 15:00:24;;;;;;;15.05;7.55;;;;;;;;;;5032213;28;20124;-58
2023/10/13 15:02:51;;;;;;;16.85;8.00;;;28.70;98.90;;;;;;5030029;28;20045;-57
2023/10/13 15:05:17;;;;;;;13.85;7.13;;;;;;;;;;5032129;28;20029;-58
2023/10/13 15:07:45;;;;;;;14.63;7.97;;;28.30;93.80;;;;;;5032118;28;20040;-57
2023/10/13 15:10:14;;;;;;;11.60;6.90;;;28.30;94.10;;;;;;5032165;28;20481;-58
2023/10/13 15:12:48;;;;;;;15.30;7.53;;;28.10;94.20;;;;;;5029993;28;20064;-57
2023/10/13 15:15:16;;;;;;;15.60;8.20;;;28.30;94.20;;;;;;5032088;28;20038;-57
2023/10/13 15:17:45;;;;;;;15.48;8.60;;;28.10;94.20;;;;;;5031970;28;20044;-56
2023/10/13 15:20:18;;;;;;;15.68;8.23;;;27.90;94.20;;;;;;5031939;28;20033;-58
2023/10/13 15:22:44;;;;;;;12.63;8.18;;;27.90;94.30;;;;;;5031946;28;20035;-57
2023/10/13 15:25:29;;;;;;;15.45;8.23;;;27.90;94.30;;;;;;5046310;28;20084;-57
2023/10/13 15:28:08;;;;;;;14.45;8.85;;;27.90;94.20;;;;;;5031531;28;20167;-59
2023/10/13 15:30:56;;;;;;;13.40;8.50;;;27.70;94.30;;;;;;5032111;28;20033;-58
2023/10/13 15:33:23;;;;;;;62.20;23.42;;;27.60;94.30;;;;;;5030132;28;20062;-58
2023/10/13 15:35:50;;;;;;;40.63;15.68;;;27.30;94.50;;;;;;5032053;28;20116;-56
2023/10/13 15:38:19;;;;;;;20.95;9.95;;;;;;;;;;5032202;28;20091;-57
2023/10/13 15:40:45;;;;;;;63.08;24.55;;;;;;;;;;5031942;28;20143;-59
2023/10/13 15:43:12;;;;;;;22.23;12.02;;;;;;;;;;5032085;28;20052;-58
2023/10/13 15:45:42;;;;;;;27.35;13.10;;;;;;;;;;5031539;28;20032;-57
2023/10/13 15:48:11;;;;;;;52.03;22.38;;;;;;;;;;5031707;28;20051;-57
2023/10/13 15:50:40;;;;;;;35.90;17.45;;;26.20;95.00;;;;;;5032025;28;20034;-58
2023/10/13 15:53:07;;;;;;;52.03;21.95;;;26.20;95.20;;;;;;5029277;28;20060;-58
2023/10/13 15:55:37;;;;;;;21.17;11.30;;;26.10;95.30;;;;;;5031703;28;20079;-57
2023/10/13 15:58:07;;;;;;;46.25;17.02;;;25.90;95.50;;;;;;5031578;28;20030;-56
2023/10/13 16:00:37;;;;;;;46.97;20.35;;;25.80;95.60;;;;;;5031987;28;20533;-58
2023/10/13 16:03:10;;;;;;;31.35;13.85;;;;;;;;;;5031370;28;20409;-57
2023/10/13 16:05:37;;;;;;;53.45;16.20;;;25.60;95.50;;;;;;5035321;28;20080;-56
2023/10/13 16:08:06;;;;;;;35.58;19.27;;;25.60;95.90;;;;;;5035433;28;20056;-57
2023/10/13 16:10:33;;;;;;;31.77;18.20;;;;;;;;;;5035820;28;20193;-57
2023/10/13 16:12:59;;;;;;;35.72;21.35;;;25.10;96.30;;;;;;5035159;28;20034;-57
2023/10/13 16:15:24;;;;;;;33.80;19.38;;;24.90;96.70;;;;;;5035623;28;20095;-59
2023/10/13 16:17:53;;;;;;;34.25;20.88;;;24.90;96.80;;;;;;5035226;28;20099;-58
2023/10/13 16:20:20;;;;;;;33.08;20.58;;;24.90;96.80;;;;;;5043309;28;20030;-58
2023/10/13 16:22:47;;;;;;;33.90;21.83;;;24.80;96.80;;;;;;5041984;28;20037;-56
2023/10/13 16:25:14;;;;;;;32.45;19.27;;;24.70;97.20;;;;;;5035068;28;20041;-57
2023/10/13 16:27:45;;;;;;;23.35;15.85;;;24.60;97.40;;;;;;5035099;28;20033;-56
2023/10/13 16:30:15;;;;;;;31.38;16.55;;;24.40;97.60;;;;;;5034730;28;20040;-58
2023/10/13 16:32:49;;;;;;;26.42;16.42;;;24.30;97.80;;;;;;5049436;28;20055;-56
2023/10/13 16:35:18;;;;;;;21.77;12.02;;;24.10;98.00;;;;;;5035348;28;20033;-57
2023/10/13 16:37:45;;;;;;;20.52;13.25;;;;;;;;;;5034895;28;20033;-57
2023/10/13 16:40:15;;;;;;;24.42;14.85;;;23.70;98.50;;;;;;5039510;28;20025;-56
2023/10/13 16:42:41;;;;;;;30.35;18.35;;;;;;;;;;5054759;28;20032;-56
2023/10/13 16:45:20;;;;;;;34.83;19.20;;;23.40;99.00;;;;;;5054524;28;20065;-58
2023/10/13 16:47:47;;;;;;;26.65;15.02;;;23.40;99.40;;;;;;5054668;28;20079;-58
2023/10/13 16:50:16;;;;;;;18.10;11.48;;;;;;;;;;5054552;28;20551;-56
2023/10/13 16:52:46;;;;;;;21.80;11.73;;;23.20;99.50;;;;;;5053772;28;20066;-57
2023/10/13 16:55:19;;;;;;;23.38;13.43;;;23.10;99.90;;;;;;5053594;28;20033;-56
2023/10/13 16:57:50;;;;;;;23.10;11.95;;;23.10;99.90;;;;;;5053633;28;20044;-57
2023/10/13 17:00:27;;;;;;;16.80;12.38;;;23.10;99.90;;;;;;5052163;28;20438;-56
2023/10/13 17:02:57;;;;;;;24.10;12.40;;;;;;;;;;5053660;28;20025;-57
2023/10/13 17:05:27;;;;;;;20.05;12.65;;;23.00;99.90;;;;;;5053624;28;20543;-58
2023/10/13 17:07:53;;;;;;;26.30;15.57;;;22.90;99.90;;;;;;5053542;28;20080;-58
2023/10/13 17:10:19;;;;;;;33.88;18.55;;;22.90;99.90;;;;;;5053425;28;20114;-57
2023/10/13 17:12:45;;;;;;;29.17;17.40;;;22.90;99.90;;;;;;5053244;28;20488;-57
2023/10/13 17:15:31;;;;;;;29.00;17.33;;;22.80;99.90;;;;;;5052740;28;20400;-57
2023/10/13 17:17:59;;;;;;;25.40;17.02;;;22.80;99.90;;;;;;5053355;28;20033;-58
2023/10/13 17:20:25;;;;;;;32.13;17.45;;;22.60;99.90;;;;;;5053113;28;20048;-57
2023/10/13 17:22:51;;;;;;;31.00;16.63;;;22.50;99.90;;;;;;5053152;28;20740;-56
2023/10/13 17:25:16;;;;;;;27.42;16.27;;;22.40;99.90;;;;;;5053692;28;20029;-58
2023/10/13 17:27:43;;;;;;;23.75;16.92;;;;;;;;;;5053983;28;20116;-56
2023/10/13 17:30:10;;;;;;;27.40;17.30;;;22.40;99.90;;;;;;5053819;28;20025;-56
2023/10/13 17:32:36;;;;;;;25.40;17.15;;;22.40;99.90;;;;;;5051711;28;20064;-57
2023/10/13 17:35:03;;;;;;;33.17;21.33;;;22.30;99.90;;;;;;5053902;28;20036;-57
2023/10/13 17:37:33;;;;;;;34.10;21.23;;;22.30;99.90;;;;;;5051554;28;20098;-58
2023/10/13 17:40:00;;;;;;;39.50;22.63;;;;;;;;;;5053717;28;20476;-58
2023/10/13 17:42:29;;;;;;;37.97;23.23;;;22.00;99.90;;;;;;5053722;28;20037;-57
2023/10/13 17:44:55;;;;;;;41.58;22.08;;;;;;;;;;5044445;28;20065;-57
2023/10/13 17:47:21;;;;;;;42.28;22.98;;;21.70;99.90;;;;;;5041885;28;20393;-56
2023/10/13 17:49:48;;;;;;;39.28;21.92;;;21.60;99.90;;;;;;5041768;28;20026;-56
2023/10/13 17:52:13;;;;;;;47.70;24.50;;;21.60;99.90;;;;;;5056629;28;20040;-56
2023/10/13 17:54:41;;;;;;;37.25;21.48;;;21.70;99.90;;;;;;5038919;28;20029;-56
2023/10/13 17:57:06;;;;;;;32.85;21.30;;;21.50;99.90;;;;;;5039534;28;20370;-57
2023/10/13 17:59:35;;;;;;;36.45;19.83;;;21.40;99.90;;;;;;5038723;28;20032;-56
2023/10/13 18:02:03;;;;;;;35.30;20.75;;;21.40;99.90;;;;;;5042731;28;20029;-57
2023/10/13 18:04:29;;;;;;;32.92;21.23;;;21.40;99.90;;;;;;5042270;28;20036;-56
2023/10/13 18:06:56;;;;;;;32.58;20.63;;;21.30;99.90;;;;;;5042165;28;20481;-57
2023/10/13 18:09:23;;;;;;;44.67;23.35;;;21.20;99.90;;;;;;5041819;28;20025;-57
2023/10/13 18:11:50;;;;;;;42.20;22.80;;;21.20;99.90;;;;;;5043586;28;20119;-56
2023/10/13 18:14:17;;;;;;;39.63;23.48;;;21.20;99.90;;;;;;5038154;28;20040;-57
2023/10/13 18:16:44;;;;;;;37.08;23.88;;;21.30;99.90;;;;;;5032664;28;20420;-56
2023/10/13 18:19:10;;;;;;;41.20;24.42;;;21.20;99.90;;;;;;5031116;28;20044;-56
2023/10/13 18:21:37;;;;;;;37.90;24.33;;;21.20;99.90;;;;;;5047670;28;20659;-56
2023/10/13 18:24:03;;;;;;;43.13;24.80;;;21.20;99.90;;;;;;5050675;28;20033;-56
2023/10/13 18:26:30;;;;;;;35.33;25.20;;;21.10;99.90;;;;;;5048538;28;20624;-57
2023/10/13 18:28:58;;;;;;;36.65;23.98;;;21.10;99.90;;;;;;5035952;28;20409;-56
2023/10/13 18:31:24;;;;;;;38.38;24.15;;;21.10;99.90;;;;;;5031919;28;20115;-58
2023/10/13 18:33:57;;;;;;;35.65;22.38;;;21.10;99.90;;;;;;5031604;28;20034;-57
2023/10/13 18:36:29;;;;;;;40.83;24.15;;;;;;;;;;5031682;28;20037;-56
2023/10/13 18:38:56;;;;;;;36.47;22.88;;;;;;;;;;5031804;28;20030;-56
2023/10/13 18:41:23;;;;;;;30.75;21.85;;;;;;;;;;5031412;28;20033;-56
2023/10/13 18:43:49;;;;;;;36.35;24.00;;;;;;;;;;5034115;28;20065;-58
2023/10/13 18:46:16;;;;;;;34.10;24.17;;;20.80;99.90;;;;;;5031499;28;20040;-56
2023/10/13 18:48:44;;;;;;;37.55;26.00;;;20.70;99.90;;;;;;5031400;28;20509;-56
2023/10/13 18:51:16;;;;;;;41.13;27.30;;;20.30;99.90;;;;;;5031524;28;20057;-58
2023/10/13 18:53:43;;;;;;;39.47;28.45;;;20.50;99.90;;;;;;5045654;28;20049;-57
2023/10/13 18:56:19;;;;;;;41.17;28.58;;;20.60;99.90;;;;;;5031550;28;20030;-56
2023/10/13 18:59:02;;;;;;;50.08;31.10;;;20.50;99.90;;;;;;5031405;28;20037;-56
2023/10/13 19:01:29;;;;;;;50.55;31.63;;;20.40;99.90;;;;;;5031233;28;20047;-57
2023/10/13 19:03:59;;;;;;;51.55;32.13;;;20.40;99.90;;;;;;5031368;28;20026;-57
2023/10/13 19:06:30;;;;;;;51.42;32.13;;;;;;;;;;5031122;28;20037;-57
2023/10/13 19:08:56;;;;;;;47.40;35.30;;;;;;;;;;5031265;28;20452;-57
2023/10/13 19:11:23;;;;;;;43.15;31.10;;;;;;;;;;5031307;28;20112;-57
2023/10/13 19:13:52;;;;;;;40.63;29.30;;;;;;;;;;5031858;28;20037;-56
2023/10/13 19:16:19;;;;;;;43.03;28.70;;;;;;;;;;5032062;28;20017;-55
2023/10/13 19:18:48;;;;;;;35.83;27.60;;;;;;;;;;5032296;28;20022;-57
2023/10/13 19:21:19;;;;;;;37.58;25.52;;;;;;;;;;5032011;28;20098;-57
2023/10/13 19:23:52;;;;;;;39.80;25.67;;;19.90;99.90;;;;;;5046437;28;20045;-56
2023/10/13 19:26:21;;;;;;;38.33;26.40;;;;;;;;;;5031831;28;20034;-56
2023/10/13 19:28:48;;;;;;;33.25;24.10;;;19.40;99.90;;;;;;5032275;28;20033;-58
2023/10/13 19:31:17;;;;;;;29.00;22.48;;;;;;;;;;5012887;28;20115;-57
2023/10/13 19:33:43;;;;;;;32.70;21.50;;;;;;;;;;5029460;28;20155;-56
2023/10/13 19:36:13;;;;;;;32.00;21.75;;;19.00;99.90;;;;;;5029454;28;20576;-56
2023/10/13 19:38:43;;;;;;;29.08;21.95;;;18.90;99.90;;;;;;5029085;28;20038;-56
2023/10/13 19:41:17;;;;;;;30.80;22.95;;;19.00;99.90;;;;;;5029380;28;20145;-56
2023/10/13 19:43:49;;;;;;;29.38;22.92;;;18.80;99.90;;;;;;5029281;28;20503;-57
2023/10/13 19:46:16;;;;;;;;;;;19.30;99.90;;;;;;5029824;28;20095;-56
2023/10/13 19:48:42;;;;;;;40.13;25.30;;;19.50;99.90;;;;;;5029193;28;19905;-56
2023/10/13 19:51:10;;;;;;;32.13;25.92;;;19.40;99.90;;;;;;5029302;28;20033;-56
2023/10/13 19:53:40;;;;;;;34.58;27.25;;;19.50;99.90;;;;;;5028927;28;20054;-55
2023/10/13 19:56:19;;;;;;;44.58;29.20;;;19.30;99.90;;;;;;5029357;28;20038;-56
2023/10/13 19:58:45;;;;;;;41.92;30.45;;;19.40;99.90;;;;;;5029158;28;20033;-59
2023/10/13 20:01:24;;;;;;;39.30;28.60;;;19.50;99.90;;;;;;5028954;28;20033;-56
2023/10/13 20:03:54;;;;;;;37.83;29.95;;;19.60;99.90;;;;;;5038606;28;20029;-56
2023/10/13 20:06:24;;;;;;;41.47;31.20;;;19.30;99.90;;;;;;5040090;28;20125;-56
2023/10/13 20:08:51;;;;;;;42.92;30.38;;;19.40;99.90;;;;;;5040455;28;20112;-56
2023/10/13 20:11:18;;;;;;;48.35;32.33;;;19.30;99.90;;;;;;5041939;28;20067;-56
2023/10/13 20:13:47;;;;;;;44.63;30.98;;;19.20;99.90;;;;;;5039226;28;20021;-57
2023/10/13 20:16:20;;;;;;;45.50;33.38;;;19.40;99.90;;;;;;5039977;28;20503;-56
2023/10/13 20:18:47;;;;;;;42.30;33.30;;;19.50;99.90;;;;;;5040566;28;20441;-57
2023/10/13 20:21:13;;;;;;;45.65;30.70;;;19.50;99.90;;;;;;5039236;28;20044;-56
2023/10/13 20:23:41;;;;;;;42.42;30.38;;;19.60;99.90;;;;;;5039535;28;20045;-56
2023/10/13 20:26:07;;;;;;;39.72;27.60;;;19.50;99.90;;;;;;5040603;28;20473;-57